Belgrade, Maine
Current Conditions -  °F | °C
As of 4:53 PM on Wednesday 28 Jan 2015 (Local Time) from KAUG Reporting Station
Clear Clear  
Wind Chill: 10°   Ceiling: Unl
Heat Index: 20°   Visibility: 10mi
Dew Point:   Wind: 8mph
Humidity: 62%   Direction: 350°N
Pressure: 30"   Gusts: NA
Location:  44.45°N, 69.83°W
Report Text: KAUG 282153Z AUTO 35007KT 10SM CLR M07/M13 A3000 RMK AO2 SLP165 T10671128
Loading
Personal Weather Stations






























Interactive Weather Map New forecast layout! Learn more

10-Day Weather Forecast

Advertisements
Track Severe Weather on mobile